Terminal Aerodrome Forecast
Issued by NWS Birmingham, AL

Home | Current Version | Previous Version | Text Only | Print | Product List | Glossary On
Versions: 1 2 3 4 5 6 7 8 9 10 11 12 13 14 15 16 17 18 19 20 21 22 23
002
FTUS44 KBMX 012003 AAB
TAFBHM
TAF AMD
KBHM 012003Z 0120/0218 VRB06G15KT 3SM TSRA SCT025 OVC040CB
      TEMPO 0120/0122 28012G20KT 2SM TSRA BKN020 OVC040CB
     FM012300 17004KT P6SM BKN050
     FM020900 15004KT P6SM BKN015=

USA.gov is the U.S. government's official web portal to all federal, state and local government web resources and services.